TAF KPOU
KPOU 072345Z 0800/0824 00000KT P6SM SKC PROB30 0817/0822 4SM -SNRA OVC025=
METAR KPOU
WC KPOU
WS KPOU
WV KPOU